Time;durP1;ratioP1;P1;durP2;ratioP2;P2;SDS_P1;SDS_P2;PMS_P1;PMS_P2;Temp;Humidity;BMP_temperature;BMP_pressure;BME280_temperature;BME280_humidity;BME280_pressure;Samples;Min_cycle;Max_cycle;Signal;HPM_P1;HPM_P2
2023/07/02 00:00:07;;;;;;;;;;;17.40;96.90;;;;;;5060506;28;19917;-84
2023/07/02 00:02:33;;;;;;;;;;;17.50;97.00;;;;;;5061797;28;19924;-82
2023/07/02 00:04:58;;;;;;;;;;;17.70;96.60;;;;;;5060854;28;20284;-82
2023/07/02 00:07:25;;;;;;;;;;;17.50;96.70;;;;;;5056383;28;20315;-83
2023/07/02 00:09:51;;;;;;;;;;;17.60;97.00;;;;;;5060509;28;19916;-83
2023/07/02 00:12:17;;;;;;;;;;;17.50;97.10;;;;;;5054503;28;19927;-83
2023/07/02 00:14:42;;;;;;;;;;;17.60;97.40;;;;;;5061613;28;19962;-82
2023/07/02 00:17:12;;;;;;;;;;;17.50;97.50;;;;;;5063102;28;20651;-81
2023/07/02 00:19:41;;;;;;;;;;;17.70;97.30;;;;;;5057294;28;19917;-81
2023/07/02 00:22:10;;;;;;;;;;;17.60;97.50;;;;;;5060116;28;19986;-86
2023/07/02 00:24:36;;;;;;;;;;;17.40;98.20;;;;;;5062243;28;19917;-81
2023/07/02 00:27:02;;;;;;;;;;;17.30;98.70;;;;;;5061485;28;19995;-82
2023/07/02 00:29:27;;;;;;;;;;;17.20;99.40;;;;;;5055827;28;19921;-82
2023/07/02 00:31:53;;;;;;;;;;;17.20;99.70;;;;;;5043956;28;19917;-82
2023/07/02 00:34:19;;;;;;;;;;;17.20;99.60;;;;;;5061985;28;19923;-83
2023/07/02 00:36:45;;;;;;;;;;;17.30;99.80;;;;;;5053211;28;19919;-82
2023/07/02 00:39:13;;;;;;;;;;;17.30;99.80;;;;;;5060562;28;19920;-82
2023/07/02 00:41:40;;;;;;;;;;;17.30;99.70;;;;;;5059950;28;20001;-83
2023/07/02 00:44:05;;;;;;;;;;;17.20;99.90;;;;;;5055761;28;19916;-82
2023/07/02 00:46:31;;;;;;;;;;;17.30;99.90;;;;;;5058029;28;19927;-83
2023/07/02 00:48:56;;;;;;;;;;;17.30;99.90;;;;;;5062468;28;19917;-81
2023/07/02 00:51:23;;;;;;;;;;;17.40;99.90;;;;;;5043229;28;19963;-80
2023/07/02 00:53:50;;;;;;;;;;;17.20;99.90;;;;;;5061640;28;20041;-81
2023/07/02 00:56:16;;;;;;;;;;;17.20;99.90;;;;;;5054946;28;19968;-82
2023/07/02 00:58:50;;;;;;;;;;;17.30;99.90;;;;;;5061090;28;19927;-81
2023/07/02 01:01:22;;;;;;;;;;;17.10;99.90;;;;;;5067623;28;19916;-82
2023/07/02 01:03:53;;;;;;;;;;;17.10;99.90;;;;;;5059681;28;19966;-81
2023/07/02 01:06:24;;;;;;;;;;;17.20;99.90;;;;;;5056899;28;19917;-82
2023/07/02 01:09:00;;;;;;;;;;;17.10;99.90;;;;;;5059519;28;20402;-83
2023/07/02 01:11:38;;;;;;;;;;;17.00;99.90;;;;;;5062380;28;19920;-80
2023/07/02 01:14:14;;;;;;;;;;;17.10;99.90;;;;;;5056758;28;20007;-82
2023/07/02 01:16:43;;;;;;;;;;;17.20;99.90;;;;;;5049414;28;19958;-84
2023/07/02 01:19:13;;;;;;;;;;;17.20;99.90;;;;;;5057245;28;19916;-82
2023/07/02 01:21:39;;;;;;;;;;;17.20;99.90;;;;;;5070548;28;19912;-83
2023/07/02 01:24:04;;;;;;;;;;;17.20;99.90;;;;;;5065916;28;19912;-83
2023/07/02 01:26:33;;;;;;;;;;;17.10;99.90;;;;;;5052551;28;20401;-84
2023/07/02 01:28:59;;;;;;;;;;;17.00;99.90;;;;;;5061143;28;19916;-82
2023/07/02 01:31:25;;;;;;;;;;;17.10;99.90;;;;;;5066261;28;20629;-84
2023/07/02 01:33:51;;;;;;;;;;;16.90;99.90;;;;;;5063655;28;19920;-85
2023/07/02 01:36:16;;;;;;;;;;;16.90;99.90;;;;;;5065691;28;19966;-85
2023/07/02 01:38:42;;;;;;;;;;;17.00;99.90;;;;;;5064801;28;19948;-83
2023/07/02 01:41:08;;;;;;;;;;;17.00;99.90;;;;;;5065961;28;19923;-86
2023/07/02 01:43:33;;;;;;;;;;;16.70;99.90;;;;;;5064641;28;19920;-82
2023/07/02 01:46:01;;;;;;;;;;;16.70;99.90;;;;;;5065274;28;19963;-84
2023/07/02 01:48:27;;;;;;;;;;;16.70;99.90;;;;;;5063749;28;19939;-84
2023/07/02 01:50:52;;;;;;;;;;;16.90;99.90;;;;;;5064585;28;20387;-81
2023/07/02 01:53:18;;;;;;;;;;;17.00;99.90;;;;;;5065682;28;19924;-83
2023/07/02 01:55:43;;;;;;;;;;;17.00;99.90;;;;;;5069260;28;19923;-84
2023/07/02 01:58:09;;;;;;;;;;;17.00;99.90;;;;;;5062022;28;19999;-84
2023/07/02 02:00:35;;;;;;;;;;;17.10;99.90;;;;;;5064779;28;19962;-83
2023/07/02 02:03:00;;;;;;;;;;;17.00;99.90;;;;;;5064376;28;19916;-83
2023/07/02 02:05:26;;;;;;;;;;;17.00;99.90;;;;;;5071869;28;19958;-81
2023/07/02 02:07:51;;;;;;;;;;;16.90;99.90;;;;;;5065433;28;20741;-81
2023/07/02 02:10:17;;;;;;;;;;;16.90;99.90;;;;;;5064807;28;19971;-84
2023/07/02 02:12:42;;;;;;;;;;;16.80;99.90;;;;;;5064040;28;19927;-79
2023/07/02 02:15:08;;;;;;;;;;;16.90;99.90;;;;;;5064381;28;19921;-83
2023/07/02 02:17:35;;;;;;;;;;;16.90;99.90;;;;;;5064041;28;19917;-82
2023/07/02 02:20:00;;;;;;;;;;;16.90;99.90;;;;;;5063859;28;20012;-82
2023/07/02 02:22:26;;;;;;;;;;;16.90;99.90;;;;;;5063454;28;19916;-79
2023/07/02 02:24:51;;;;;;;;;;;17.00;99.90;;;;;;5064271;28;19940;-81
2023/07/02 02:27:17;;;;;;;;;;;17.10;99.90;;;;;;5064415;28;19923;-84
2023/07/02 02:29:42;;;;;;;;;;;17.10;99.90;;;;;;5061192;28;19924;-82
2023/07/02 02:32:08;;;;;;;;;;;16.90;99.90;;;;;;5063629;28;20015;-81
2023/07/02 02:34:34;;;;;;;;;;;16.90;99.90;;;;;;5064050;28;19927;-82
2023/07/02 02:36:59;;;;;;;;;;;16.90;99.90;;;;;;5064729;28;19919;-83
2023/07/02 02:39:25;;;;;;;;;;;16.90;99.90;;;;;;5060930;28;19947;-82
2023/07/02 02:41:50;;;;;;;;;;;16.80;99.90;;;;;;5063527;28;19916;-82
2023/07/02 02:44:16;;;;;;;;;;;16.90;99.90;;;;;;5063909;28;19919;-80
2023/07/02 02:46:42;;;;;;;;;;;16.90;99.90;;;;;;5064615;28;20734;-84
2023/07/02 02:49:07;;;;;;;;;;;16.90;99.90;;;;;;5069359;28;19920;-82
2023/07/02 02:51:33;;;;;;;;;;;17.00;99.90;;;;;;5073680;28;19920;-84
2023/07/02 02:53:58;;;;;;;;;;;17.00;99.90;;;;;;5070307;28;19921;-80
2023/07/02 02:56:24;;;;;;;;;;;17.00;99.90;;;;;;5061391;28;19912;-81
2023/07/02 02:58:49;;;;;;;;;;;17.00;99.90;;;;;;5062366;28;19913;-81
2023/07/02 03:01:15;;;;;;;;;;;17.00;99.90;;;;;;5063892;28;19912;-85
2023/07/02 03:03:44;;;;;;;;;;;17.00;99.90;;;;;;5063367;28;20015;-83
2023/07/02 03:06:11;;;;;;;;;;;16.90;99.90;;;;;;5045145;28;20378;-83
2023/07/02 03:08:36;;;;;;;;;;;17.00;99.90;;;;;;5063595;28;19920;-83
2023/07/02 03:11:02;;;;;;;;;;;17.00;99.90;;;;;;5063876;28;19913;-83
2023/07/02 03:13:27;;;;;;;;;;;17.00;99.90;;;;;;5063455;28;19916;-81
2023/07/02 03:15:53;;;;;;;;;;;16.90;99.90;;;;;;5070135;28;19948;-84
2023/07/02 03:18:18;;;;;;;;;;;17.00;99.90;;;;;;5064049;28;19912;-83
2023/07/02 03:20:44;;;;;;;;;;;17.00;99.90;;;;;;5065546;28;20003;-82
2023/07/02 03:23:10;;;;;;;;;;;16.90;99.90;;;;;;5062647;28;20400;-84
2023/07/02 03:25:35;;;;;;;;;;;16.90;99.90;;;;;;5045281;28;19967;-81
2023/07/02 03:28:01;;;;;;;;;;;17.00;99.90;;;;;;5061298;28;19919;-82
2023/07/02 03:30:26;;;;;;;;;;;16.80;99.90;;;;;;5063072;28;19934;-81
2023/07/02 03:32:52;;;;;;;;;;;16.90;99.90;;;;;;5063522;28;19916;-81
2023/07/02 03:35:17;;;;;;;;;;;16.90;99.90;;;;;;5064696;28;19917;-81
2023/07/02 03:37:43;;;;;;;;;;;16.80;99.90;;;;;;5059466;28;20665;-82
2023/07/02 03:40:09;;;;;;;;;;;16.90;99.90;;;;;;5074403;28;19986;-80
2023/07/02 03:42:35;;;;;;;;;;;16.90;99.90;;;;;;5061062;28;19916;-82
2023/07/02 03:45:00;;;;;;;;;;;16.80;99.90;;;;;;5062551;28;19916;-82
2023/07/02 03:47:26;;;;;;;;;;;16.80;99.90;;;;;;5063110;28;19916;-79
2023/07/02 03:49:51;;;;;;;;;;;16.80;99.90;;;;;;5060701;28;19931;-83
2023/07/02 03:52:17;;;;;;;;;;;16.80;99.90;;;;;;5062762;28;19917;-83
2023/07/02 03:54:42;;;;;;;;;;;16.80;99.90;;;;;;5060699;28;19917;-81
2023/07/02 03:57:08;;;;;;;;;;;16.90;99.90;;;;;;5066892;28;20613;-81
2023/07/02 03:59:34;;;;;;;;;;;16.80;99.90;;;;;;5062499;28;20291;-82
2023/07/02 04:01:59;;;;;;;;;;;16.80;99.90;;;;;;5064619;28;20291;-84
2023/07/02 04:04:25;;;;;;;;;;;16.80;99.90;;;;;;5059667;28;19916;-82
2023/07/02 04:06:50;;;;;;;;;;;16.80;99.90;;;;;;5063637;28;20454;-84
2023/07/02 04:09:18;;;;;;;;;;;16.70;99.90;;;;;;5060327;28;19912;-83
2023/07/02 04:11:43;;;;;;;;;;;16.80;99.90;;;;;;5059404;28;19916;-84
2023/07/02 04:14:09;;;;;;;;;;;16.80;99.90;;;;;;5062144;28;19966;-84
2023/07/02 04:16:35;;;;;;;;;;;16.80;99.90;;;;;;5065102;28;19909;-85
2023/07/02 04:19:00;;;;;;;;;;;16.70;99.90;;;;;;5066979;28;19962;-82
2023/07/02 04:21:26;;;;;;;;;;;16.70;99.90;;;;;;5062780;28;19912;-81
2023/07/02 04:23:51;;;;;;;;;;;16.70;99.90;;;;;;5062359;28;19919;-79
2023/07/02 04:26:17;;;;;;;;;;;16.80;99.90;;;;;;5062286;28;19982;-84
2023/07/02 04:28:43;;;;;;;;;;;16.80;99.90;;;;;;5076102;28;20379;-81
2023/07/02 04:31:08;;;;;;;;;;;16.80;99.90;;;;;;5061768;28;19928;-79
2023/07/02 04:33:35;;;;;;;;;;;16.80;99.90;;;;;;5061533;28;19964;-79
2023/07/02 04:36:02;;;;;;;;;;;16.90;99.90;;;;;;5062024;28;20406;-82
2023/07/02 04:38:28;;;;;;;;;;;17.00;99.90;;;;;;5043799;28;19920;-81
2023/07/02 04:40:53;;;;;;;;;;;16.80;99.90;;;;;;5061969;28;19912;-80
2023/07/02 04:43:19;;;;;;;;;;;16.90;99.90;;;;;;5063936;28;19916;-79
2023/07/02 04:45:45;;;;;;;;;;;17.10;99.90;;;;;;5069382;28;20493;-79
2023/07/02 04:48:10;;;;;;;;;;;17.10;99.90;;;;;;5063107;28;19928;-85
2023/07/02 04:50:36;;;;;;;;;;;17.10;99.90;;;;;;5062130;28;20704;-84
2023/07/02 04:53:02;;;;;;;;;;;17.20;99.90;;;;;;5061477;28;19928;-84
2023/07/02 04:55:27;;;;;;;;;;;17.20;99.90;;;;;;5064207;28;19932;-82
2023/07/02 04:57:53;;;;;;;;;;;17.20;99.90;;;;;;5064803;28;19932;-87
2023/07/02 05:00:18;;;;;;;;;;;17.20;99.90;;;;;;5066166;28;19912;-84
2023/07/02 05:02:44;;;;;;;;;;;17.20;99.90;;;;;;5066312;28;19917;-84
2023/07/02 05:05:10;;;;;;;;;;;17.10;99.90;;;;;;5065523;28;20027;-89
2023/07/02 05:07:35;;;;;;;;;;;17.10;99.90;;;;;;5064785;28;19943;-84
2023/07/02 05:10:01;;;;;;;;;;;17.00;99.90;;;;;;5061134;28;20338;-86
2023/07/02 05:12:26;;;;;;;;;;;17.10;99.90;;;;;;5046665;28;19974;-87
2023/07/02 05:14:52;;;;;;;;;;;17.20;99.90;;;;;;5065432;28;19927;-83
2023/07/02 05:17:17;;;;;;;;;;;17.20;99.90;;;;;;5065928;28;19913;-82
2023/07/02 05:19:43;;;;;;;;;;;17.20;99.90;;;;;;5058692;28;19967;-84
2023/07/02 05:22:08;;;;;;;;;;;17.20;99.90;;;;;;5063396;28;20299;-80
2023/07/02 05:24:34;;;;;;;;;;;17.30;99.90;;;;;;5064882;28;19912;-81
2023/07/02 05:27:00;;;;;;;;;;;17.20;99.90;;;;;;5045607;28;20342;-85
2023/07/02 05:29:25;;;;;;;;;;;17.30;99.90;;;;;;5065022;28;19966;-86
2023/07/02 05:31:51;;;;;;;;;;;17.40;99.90;;;;;;5064466;28;19916;-81
2023/07/02 05:34:16;;;;;;;;;;;17.30;99.90;;;;;;5065278;28;20008;-83
2023/07/02 05:36:42;;;;;;;;;;;17.30;99.90;;;;;;5064058;28;19916;-80
2023/07/02 05:39:07;;;;;;;;;;;17.30;99.90;;;;;;5064655;28;19916;-82
2023/07/02 05:41:33;;;;;;;;;;;17.50;99.90;;;;;;5064239;28;20110;-83
2023/07/02 05:43:59;;;;;;;;;;;17.50;99.90;;;;;;5064360;28;20368;-82
2023/07/02 05:46:25;;;;;;;;;;;17.50;99.90;;;;;;5062169;28;19944;-82
2023/07/02 05:48:50;;;;;;;;;;;17.40;99.90;;;;;;5062450;28;20106;-83
2023/07/02 05:51:25;;;;;;;;;;;17.50;99.90;;;;;;5064205;28;19920;-85
2023/07/02 05:53:51;;;;;;;;;;;17.60;99.90;;;;;;5064105;28;20378;-84
2023/07/02 05:56:17;;;;;;;;;;;17.60;99.90;;;;;;5064224;28;20007;-84
2023/07/02 05:58:43;;;;;;;;;;;17.60;99.90;;;;;;5064427;28;19916;-83
2023/07/02 06:01:08;;;;;;;;;;;17.50;99.90;;;;;;5056672;28;19954;-82
2023/07/02 06:03:34;;;;;;;;;;;17.50;99.90;;;;;;5054230;28;19917;-81
2023/07/02 06:06:00;;;;;;;;;;;17.30;99.90;;;;;;5059796;28;19959;-83
2023/07/02 06:08:25;;;;;;;;;;;17.40;99.90;;;;;;5058744;28;20569;-84
2023/07/02 06:10:51;;;;;;;;;;;17.40;99.90;;;;;;5063903;28;20792;-84
2023/07/02 06:13:17;;;;;;;;;;;17.40;99.90;;;;;;5062172;28;19920;-88
2023/07/02 06:15:42;;;;;;;;;;;17.50;99.90;;;;;;5057584;28;19917;-83
2023/07/02 06:18:08;;;;;;;;;;;17.50;99.90;;;;;;5061172;28;19921;-85
2023/07/02 06:20:33;;;;;;;;;;;17.50;99.90;;;;;;5046444;28;19913;-87
2023/07/02 06:22:59;;;;;;;;;;;17.50;99.90;;;;;;5060395;28;19916;-85
2023/07/02 06:25:25;;;;;;;;;;;17.40;99.90;;;;;;5054570;28;20561;-87
2023/07/02 06:27:51;;;;;;;;;;;17.40;99.90;;;;;;5064535;28;19917;-87
2023/07/02 06:30:17;;;;;;;;;;;17.50;99.90;;;;;;5065200;28;19935;-89
2023/07/02 06:32:42;;;;;;;;;;;17.40;99.90;;;;;;5054704;28;19917;-83
2023/07/02 06:35:08;;;;;;;;;;;17.60;99.90;;;;;;5052834;28;19920;-89
2023/07/02 06:37:34;;;;;;;;;;;17.60;99.90;;;;;;5059891;28;19919;-87
2023/07/02 06:39:59;;;;;;;;;;;17.50;99.90;;;;;;5055244;28;19916;-87
2023/07/02 06:42:25;;;;;;;;;;;17.50;99.90;;;;;;5065021;28;19916;-88
2023/07/02 06:44:51;;;;;;;;;;;17.70;99.90;;;;;;5061538;28;19923;-88
2023/07/02 06:47:17;;;;;;;;;;;18.20;99.90;;;;;;5057702;28;19916;-88
2023/07/02 06:49:42;;;;;;;;;;;18.30;99.90;;;;;;5053722;28;20027;-88
2023/07/02 06:52:08;;;;;;;;;;;18.40;99.90;;;;;;5058770;28;20364;-84
2023/07/02 06:54:34;;;;;;;;;;;18.40;99.90;;;;;;5063914;28;19916;-89
2023/07/02 06:56:59;;;;;;;;;;;18.30;99.90;;;;;;5064032;28;19916;-84
2023/07/02 06:59:25;;;;;;;;;;;18.40;99.90;;;;;;5063456;28;19966;-86
2023/07/02 07:01:51;;;;;;;;;;;18.40;99.90;;;;;;5064153;28;20298;-83
2023/07/02 07:04:16;;;;;;;;;;;18.70;99.90;;;;;;5063424;28;20003;-83
2023/07/02 07:06:42;;;;;;;;;;;18.70;99.90;;;;;;5063654;28;19987;-83
2023/07/02 07:09:08;;;;;;;;;;;19.10;99.90;;;;;;5061686;28;19966;-84
2023/07/02 07:11:33;;;;;;;;;;;19.10;99.90;;;;;;5065245;28;20476;-84
2023/07/02 07:13:59;;;;;;;;;;;19.10;99.90;;;;;;5063594;28;19951;-83
2023/07/02 07:16:24;;;;;;;;;;;19.00;99.90;;;;;;5076344;28;19917;-84
2023/07/02 07:18:50;;;;;;;;;;;18.80;99.90;;;;;;5062535;28;19916;-83
2023/07/02 07:21:16;;;;;;;;;;;18.50;99.90;;;;;;5075399;28;19986;-83
2023/07/02 07:23:41;;;;;;;;;;;18.60;99.90;;;;;;5064323;28;19912;-83
2023/07/02 07:26:07;;;;;;;;;;;18.70;99.90;;;;;;5063579;28;20798;-84
2023/07/02 07:28:32;;;;;;;;;;;18.50;99.90;;;;;;5045238;28;19955;-83
2023/07/02 07:30:58;;;;;;;;;;;18.60;99.90;;;;;;5063415;28;19931;-86
2023/07/02 07:33:24;;;;;;;;;;;18.90;99.90;;;;;;5044629;28;19920;-86
2023/07/02 07:35:49;;;;;;;;;;;19.10;99.90;;;;;;5066456;28;19916;-83
2023/07/02 07:38:15;;;;;;;;;;;19.20;99.90;;;;;;5056497;28;19912;-87
2023/07/02 07:40:41;;;;;;;;;;;19.40;99.90;;;;;;5061419;28;19920;-85
2023/07/02 07:43:06;;;;;;;;;;;19.50;99.90;;;;;;5067635;28;19924;-84
2023/07/02 07:45:33;;;;;;;;;;;19.60;99.90;;;;;;5063229;28;19918;-85
2023/07/02 07:47:58;;;;;;;;;;;19.40;99.90;;;;;;5061957;28;20015;-86
2023/07/02 07:50:24;;;;;;;;;;;19.20;99.90;;;;;;5062059;28;19923;-86
2023/07/02 07:52:51;;;;;;;;;;;19.00;99.90;;;;;;5061827;28;19913;-89
2023/07/02 07:55:16;;;;;;;;;;;19.00;99.90;;;;;;5060299;28;19998;-87
2023/07/02 07:57:42;;;;;;;;;;;19.00;99.90;;;;;;5064695;28;20532;-86
2023/07/02 08:00:09;;;;;;;;;;;19.10;99.90;;;;;;5062817;28;20460;-82
2023/07/02 08:02:35;;;;;;;;;;;19.20;99.90;;;;;;5062870;28;19951;-89
2023/07/02 08:05:01;;;;;;;;;;;19.50;99.90;;;;;;5062532;28;20024;-88
2023/07/02 08:07:26;;;;;;;;;;;19.70;99.60;;;;;;5063342;28;20007;-88
2023/07/02 08:09:52;;;;;;;;;;;19.80;98.70;;;;;;5053238;28;19917;-90
2023/07/02 08:12:18;;;;;;;;;;;20.20;97.90;;;;;;5062385;28;19928;-86
2023/07/02 08:14:43;;;;;;;;;;;20.70;96.90;;;;;;5075183;28;20007;-84
2023/07/02 08:17:09;;;;;;;;;;;21.40;95.40;;;;;;5062838;28;19917;-85
2023/07/02 08:19:34;;;;;;;;;;;21.90;94.00;;;;;;5061915;28;19951;-85
2023/07/02 08:22:00;;;;;;;;;;;22.60;92.40;;;;;;5062577;28;19956;-88
2023/07/02 08:24:26;;;;;;;;;;;23.00;90.70;;;;;;5061841;28;19912;-87
2023/07/02 08:26:51;;;;;;;;;;;23.20;90.30;;;;;;5054384;28;19912;-86
2023/07/02 08:29:17;;;;;;;;;;;24.10;87.50;;;;;;5056227;28;19923;-90
2023/07/02 08:31:43;;;;;;;;;;;24.10;85.80;;;;;;5054325;28;19924;-84
2023/07/02 08:34:08;;;;;;;;;;;24.60;83.50;;;;;;5062155;28;19967;-85
2023/07/02 08:36:34;;;;;;;;;;;25.30;80.30;;;;;;5065406;28;19920;-87
2023/07/02 08:38:59;;;;;;;;;;;26.60;73.80;;;;;;5071913;28;20038;-86
2023/07/02 08:41:25;;;;;;;;;;;27.50;70.50;;;;;;5057050;28;19917;-88
2023/07/02 08:43:52;;;;;;;;;;;28.50;69.90;;;;;;5076112;28;19924;-87
2023/07/02 08:46:17;;;;;;;;;;;27.80;65.70;;;;;;5062879;28;19916;-89
2023/07/02 08:48:43;;;;;;;;;;;29.70;64.80;;;;;;5050438;28;19917;-86
2023/07/02 08:51:09;;;;;;;;;;;27.20;65.30;;;;;;5056605;28;19928;-85
2023/07/02 08:53:34;;;;;;;;;;;24.30;71.50;;;;;;5051723;28;19921;-86
2023/07/02 08:56:00;;;;;;;;;;;24.50;75.60;;;;;;5049634;28;19932;-86
2023/07/02 08:58:26;;;;;;;;;;;25.30;71.70;;;;;;5061246;28;19912;-83
2023/07/02 09:01:03;;;;;;;;;;;23.60;77.60;;;;;;5062724;28;19919;-86
2023/07/02 09:03:29;;;;;;;;;;;22.90;79.30;;;;;;5074407;28;19966;-86
2023/07/02 09:05:54;;;;;;;;;;;22.80;78.50;;;;;;5061991;28;19916;-85
2023/07/02 09:08:27;;;;;;;;;;;25.10;78.00;;;;;;5049207;28;19974;-86
2023/07/02 09:10:53;;;;;;;;;;;28.60;66.90;;;;;;5054185;28;19920;-83
2023/07/02 09:13:18;;;;;;;;;;;33.10;60.10;;;;;;5061971;28;20645;-84
2023/07/02 09:15:44;;;;;;;;;;;34.10;53.50;;;;;;5062743;28;20394;-88
2023/07/02 09:18:19;;;;;;;;;;;32.70;50.30;;;;;;5061946;28;19912;-86
2023/07/02 09:20:45;;;;;;;;;;;30.80;58.20;;;;;;5062396;28;19974;-88
2023/07/02 09:23:11;;;;;;;;;;;29.00;57.10;;;;;;5062269;28;19917;-84
2023/07/02 09:25:37;;;;;;;;;;;32.00;56.70;;;;;;5062575;28;20376;-86
2023/07/02 09:28:13;;;;;;;;;;;32.10;54.10;;;;;;5062247;28;19913;-83
2023/07/02 09:30:48;;;;;;;;;;;34.60;50.80;;;;;;5060814;28;20606;-85
2023/07/02 09:33:15;;;;;;;;;;;35.40;47.60;;;;;;5061591;28;19925;-86
2023/07/02 09:35:41;;;;;;;;;;;35.60;46.00;;;;;;5061575;28;20002;-87
2023/07/02 09:38:06;;;;;;;;;;;35.30;48.70;;;;;;5060778;28;20439;-86
2023/07/02 09:40:33;;;;;;;;;;;34.90;46.00;;;;;;5059005;28;19932;-89
2023/07/02 09:42:59;;;;;;;;;;;35.00;46.10;;;;;;5064622;28;20457;-83
2023/07/02 09:45:25;;;;;;;;;;;35.90;47.20;;;;;;5046757;28;19991;-87
2023/07/02 09:47:51;;;;;;;;;;;35.40;47.30;;;;;;5064598;28;20440;-86
2023/07/02 09:50:17;;;;;;;;;;;35.30;46.70;;;;;;5064371;28;20093;-90
2023/07/02 09:52:44;;;;;;;;;;;35.50;41.90;;;;;;5054036;28;19927;-86
2023/07/02 09:55:11;;;;;;;;;;;36.50;46.50;;;;;;5051069;28;19978;-83
2023/07/02 09:57:38;;;;;;;;;;;36.60;45.10;;;;;;5062827;28;19923;-89
2023/07/02 10:00:05;;;;;;;;;;;37.10;45.30;;;;;;5064349;28;20050;-83
2023/07/02 10:02:30;;;;;;;;;;;34.90;45.70;;;;;;5035904;28;20284;-88
2023/07/02 10:04:56;;;;;;;;;;;32.10;50.30;;;;;;5057419;28;19920;-85
2023/07/02 10:07:28;;;;;;;;;;;28.80;53.70;;;;;;5058798;28;19959;-85
2023/07/02 10:09:54;;;;;;;;;;;27.30;56.60;;;;;;5063102;28;20945;-87
2023/07/02 10:12:20;;;;;;;;;;;29.30;52.10;;;;;;5059453;28;19924;-88
2023/07/02 10:14:46;;;;;;;;;;;31.10;48.60;;;;;;5060939;28;19912;-84
2023/07/02 10:17:32;;;;;;;;;;;32.20;49.90;;;;;;5054660;28;19940;-84
2023/07/02 10:19:59;;;;;;;;;;;35.80;45.90;;;;;;5060897;28;20036;-83
2023/07/02 10:22:25;;;;;;;;;;;32.50;48.10;;;;;;5063680;28;19916;-84
2023/07/02 10:24:53;;;;;;;;;;;31.80;50.40;;;;;;5061516;28;20365;-83
2023/07/02 10:27:19;;;;;;;;;;;29.40;51.20;;;;;;5058813;28;19918;-83
2023/07/02 10:29:50;;;;;;;;;;;29.30;50.90;;;;;;5078952;28;19924;-81
2023/07/02 10:32:25;;;;;;;;;;;32.00;52.90;;;;;;5060159;28;20106;-83
2023/07/02 10:34:51;;;;;;;;;;;30.30;50.70;;;;;;5061254;28;19923;-85
2023/07/02 10:37:17;;;;;;;;;;;30.20;53.30;;;;;;5058094;28;19913;-89
2023/07/02 10:39:43;;;;;;;;;;;31.90;48.30;;;;;;5058610;28;20002;-86
2023/07/02 10:42:09;;;;;;;;;;;32.60;48.00;;;;;;5062928;28;19960;-87
2023/07/02 10:44:46;;;;;;;;;;;33.90;48.60;;;;;;5059827;28;19982;-86
2023/07/02 10:47:11;;;;;;;;;;;30.60;49.90;;;;;;5061448;28;20670;-84
2023/07/02 10:49:37;;;;;;;;;;;28.40;53.40;;;;;;5071776;28;19995;-80
2023/07/02 10:52:07;;;;;;;;;;;27.50;55.60;;;;;;5062120;28;19917;-80
2023/07/02 10:54:46;;;;;;;;;;;28.00;55.50;;;;;;5061918;28;20562;-81
2023/07/02 10:57:16;;;;;;;;;;;28.80;55.40;;;;;;5057797;28;19917;-81
2023/07/02 10:59:41;;;;;;;;;;;29.50;56.90;;;;;;5051782;28;19922;-81
2023/07/02 11:02:08;;;;;;;;;;;29.40;53.90;;;;;;5059237;28;19916;-81
2023/07/02 11:04:33;;;;;;;;;;;29.40;54.20;;;;;;5046384;28;19962;-80
2023/07/02 11:06:59;;;;;;;;;;;28.90;55.40;;;;;;5072192;28;19933;-79
2023/07/02 11:09:26;;;;;;;;;;;28.40;55.30;;;;;;5058979;28;19916;-81
2023/07/02 11:11:54;;;;;;;;;;;28.00;57.20;;;;;;5063238;28;19939;-81
2023/07/02 11:14:36;;;;;;;;;;;28.10;60.70;;;;;;5054139;28;19921;-81
2023/07/02 11:17:05;;;;;;;;;;;28.30;58.20;;;;;;5057776;28;19921;-80
2023/07/02 11:19:31;;;;;;;;;;;28.40;58.00;;;;;;5063070;28;19966;-81
2023/07/02 11:21:58;;;;;;;;;;;27.50;58.60;;;;;;5060291;28;19924;-81
2023/07/02 11:24:27;;;;;;;;;;;26.90;57.60;;;;;;5055262;28;19916;-81
2023/07/02 11:26:52;;;;;;;;;;;26.50;57.30;;;;;;5057974;28;19923;-81
2023/07/02 11:29:18;;;;;;;;;;;26.80;57.80;;;;;;5059770;28;19916;-80
2023/07/02 11:31:44;;;;;;;;;;;28.00;58.80;;;;;;5056849;28;19916;-80
2023/07/02 11:34:20;;;;;;;;;;;28.10;57.30;;;;;;5054420;28;19917;-79
2023/07/02 11:36:46;;;;;;;;;;;27.90;59.60;;;;;;5056642;28;20350;-81
2023/07/02 11:39:12;;;;;;;;;;;27.40;59.30;;;;;;5059178;28;19921;-80
2023/07/02 11:41:38;;;;;;;;;;;26.70;58.60;;;;;;5062077;28;19916;-79
2023/07/02 11:44:04;;;;;;;;;;;26.80;61.40;;;;;;5061342;28;20465;-79
2023/07/02 11:46:29;;;;;;;;;;;26.60;63.10;;;;;;5056475;28;19961;-79
2023/07/02 11:48:55;;;;;;;;;;;25.90;61.90;;;;;;5042181;28;20028;-80
2023/07/02 11:51:21;;;;;;;;;;;25.90;61.70;;;;;;5057185;28;20625;-79
2023/07/02 11:53:46;;;;;;;;;;;25.30;62.50;;;;;;5059651;28;20015;-78
2023/07/02 11:56:13;;;;;;;;;;;25.50;64.60;;;;;;5061818;28;19916;-78
2023/07/02 11:58:39;;;;;;;;;;;25.50;65.00;;;;;;5056035;28;19923;-78
2023/07/02 12:01:04;;;;;;;;;;;25.20;66.10;;;;;;5059141;28;19912;-78
2023/07/02 12:03:30;;;;;;;;;;;24.90;65.60;;;;;;5044489;28;19924;-78
2023/07/02 12:05:56;;;;;;;;;;;24.60;66.60;;;;;;5058127;28;19927;-79
2023/07/02 12:08:22;;;;;;;;;;;24.50;66.70;;;;;;5061508;28;19916;-78
2023/07/02 12:10:48;;;;;;;;;;;24.90;69.90;;;;;;5050653;28;19958;-78
2023/07/02 12:13:13;;;;;;;;;;;25.10;68.30;;;;;;5061213;28;20018;-78
2023/07/02 12:15:39;;;;;;;;;;;25.40;65.30;;;;;;5075415;28;20736;-78
2023/07/02 12:18:04;;;;;;;;;;;25.50;63.20;;;;;;5058312;28;20291;-78
2023/07/02 12:20:30;;;;;;;;;;;25.80;63.80;;;;;;5054541;28;20077;-78
2023/07/02 12:22:56;;;;;;;;;;;25.70;64.10;;;;;;5061529;28;20024;-78
2023/07/02 12:25:22;;;;;;;;;;;26.00;62.30;;;;;;5051697;28;19920;-77
2023/07/02 12:27:47;;;;;;;;;;;25.70;63.10;;;;;;5058058;28;20086;-78
2023/07/02 12:30:17;;;;;;;;;;;25.70;64.30;;;;;;5055749;28;20451;-78
2023/07/02 12:32:43;;;;;;;;;;;25.30;59.60;;;;;;5040510;28;19960;-78
2023/07/02 12:35:08;;;;;;;;;;;25.30;65.70;;;;;;5056930;28;20413;-78
2023/07/02 12:37:34;;;;;;;;;;;24.80;63.90;;;;;;5055308;28;19990;-78
2023/07/02 12:40:00;;;;;;;;;;;24.30;65.80;;;;;;5061497;28;19923;-79
2023/07/02 12:42:25;;;;;;;;;;;24.60;69.20;;;;;;5064424;28;20313;-78
2023/07/02 12:44:51;;;;;;;;;;;25.10;68.20;;;;;;5059216;28;19987;-78
2023/07/02 12:47:16;;;;;;;;;;;25.10;67.10;;;;;;5059457;28;20268;-78
2023/07/02 12:49:42;;;;;;;;;;;25.10;68.70;;;;;;5059347;28;19924;-79
2023/07/02 12:52:08;;;;;;;;;;;24.80;70.90;;;;;;5055188;28;19960;-79
2023/07/02 12:54:34;;;;;;;;;;;24.40;68.60;;;;;;5061098;28;20409;-81
2023/07/02 12:57:00;;;;;;;;;;;24.30;68.20;;;;;;5069523;28;19916;-78
2023/07/02 12:59:28;;;;;;;;;;;24.40;69.90;;;;;;5061191;28;19916;-79
2023/07/02 13:01:54;;;;;;;;;;;24.40;68.40;;;;;;5061482;28;19917;-78
2023/07/02 13:04:20;;;;;;;;;;;24.90;66.90;;;;;;5052359;28;19923;-78
2023/07/02 13:06:46;;;;;;;;;;;24.60;64.70;;;;;;5055682;28;20772;-77
2023/07/02 13:09:11;;;;;;;;;;;24.20;63.90;;;;;;5041536;28;19924;-76
2023/07/02 13:11:38;;;;;;;;;;;24.50;68.10;;;;;;5041926;28;19913;-76
2023/07/02 13:14:03;;;;;;;;;;;24.20;66.60;;;;;;5043819;28;20043;-76
2023/07/02 13:16:29;;;;;;;;;;;24.30;67.50;;;;;;5044269;28;20462;-77
2023/07/02 13:18:56;;;;;;;;;;;24.20;70.20;;;;;;5063470;28;19912;-76
2023/07/02 13:21:22;;;;;;;;;;;24.00;67.00;;;;;;5053810;28;19939;-77
2023/07/02 13:23:47;;;;;;;;;;;24.00;69.70;;;;;;5052481;28;19912;-76
2023/07/02 13:26:13;;;;;;;;;;;24.10;67.10;;;;;;5050113;28;20265;-76
2023/07/02 13:28:39;;;;;;;;;;;24.10;68.70;;;;;;5053808;28;19913;-76
2023/07/02 13:31:04;;;;;;;;;;;23.90;68.30;;;;;;5051192;28;19931;-76
2023/07/02 13:33:30;;;;;;;;;;;24.00;69.30;;;;;;5056152;28;19920;-76
2023/07/02 13:35:56;;;;;;;;;;;24.00;70.10;;;;;;5052185;28;19912;-76
2023/07/02 13:38:22;;;;;;;;;;;24.00;72.20;;;;;;5057756;28;20444;-76
2023/07/02 13:40:47;;;;;;;;;;;24.00;72.00;;;;;;5053364;28;19966;-76
2023/07/02 13:43:13;;;;;;;;;;;24.20;70.70;;;;;;5059666;28;20493;-76
2023/07/02 13:45:39;;;;;;;;;;;24.20;70.00;;;;;;5054193;28;19916;-76
2023/07/02 13:48:05;;;;;;;;;;;24.20;65.30;;;;;;5052020;28;19920;-77
2023/07/02 13:50:30;;;;;;;;;;;24.20;69.60;;;;;;5060692;28;19978;-76
2023/07/02 13:52:56;;;;;;;;;;;24.20;68.90;;;;;;5060522;28;20503;-76
2023/07/02 13:55:27;;;;;;;;;;;24.20;70.30;;;;;;5057049;28;19917;-76
2023/07/02 13:57:54;;;;;;;;;;;24.30;66.60;;;;;;5061535;28;19913;-76
2023/07/02 14:00:20;;;;;;;;;;;24.30;69.00;;;;;;5065700;28;19919;-76
2023/07/02 14:02:45;;;;;;;;;;;24.40;67.90;;;;;;5065621;28;19913;-76
2023/07/02 14:05:11;;;;;;;;;;;24.20;67.80;;;;;;5065315;28;19916;-76
2023/07/02 14:07:36;;;;;;;;;;;24.00;68.30;;;;;;5065064;28;20057;-76
2023/07/02 14:10:02;;;;;;;;;;;24.10;68.50;;;;;;5064920;28;19936;-76